sensor_id;sensor_type;location;lat;lon;timestamp;temperature;humidity
63537;DHT22;49686;51.880;5.632;2022-07-23T00:02:09;12.70;99.90
63537;DHT22;49686;51.880;5.632;2022-07-23T00:04:36;12.70;99.90
63537;DHT22;49686;51.880;5.632;2022-07-23T00:07:03;12.70;99.90
63537;DHT22;49686;51.880;5.632;2022-07-23T00:09:30;12.60;99.90
63537;DHT22;49686;51.880;5.632;2022-07-23T00:11:58;12.60;99.90
63537;DHT22;49686;51.880;5.632;2022-07-23T00:14:25;12.60;99.90
63537;DHT22;49686;51.880;5.632;2022-07-23T00:16:52;12.60;99.90
63537;DHT22;49686;51.880;5.632;2022-07-23T00:19:19;12.60;99.90
63537;DHT22;49686;51.880;5.632;2022-07-23T00:21:46;12.60;99.90
63537;DHT22;49686;51.880;5.632;2022-07-23T00:24:13;12.50;99.90
63537;DHT22;49686;51.880;5.632;2022-07-23T00:26:40;12.50;99.90
63537;DHT22;49686;51.880;5.632;2022-07-23T00:29:09;12.50;99.90
63537;DHT22;49686;51.880;5.632;2022-07-23T00:31:35;12.40;99.90
63537;DHT22;49686;51.880;5.632;2022-07-23T00:34:02;12.40;99.90
63537;DHT22;49686;51.880;5.632;2022-07-23T00:36:30;12.40;99.90
63537;DHT22;49686;51.880;5.632;2022-07-23T00:38:57;12.40;99.90
63537;DHT22;49686;51.880;5.632;2022-07-23T00:41:24;12.50;99.90
63537;DHT22;49686;51.880;5.632;2022-07-23T00:43:51;12.50;99.90
63537;DHT22;49686;51.880;5.632;2022-07-23T00:46:20;12.50;99.90
63537;DHT22;49686;51.880;5.632;2022-07-23T00:48:48;12.50;99.90
63537;DHT22;49686;51.880;5.632;2022-07-23T00:51:16;12.50;99.90
63537;DHT22;49686;51.880;5.632;2022-07-23T00:53:43;12.50;99.90
63537;DHT22;49686;51.880;5.632;2022-07-23T00:56:10;12.50;99.90
63537;DHT22;49686;51.880;5.632;2022-07-23T00:58:39;12.50;99.90
63537;DHT22;49686;51.880;5.632;2022-07-23T01:01:08;12.50;99.90
63537;DHT22;49686;51.880;5.632;2022-07-23T01:03:36;12.50;99.90
63537;DHT22;49686;51.880;5.632;2022-07-23T01:06:04;12.50;99.90
63537;DHT22;49686;51.880;5.632;2022-07-23T01:08:30;12.50;99.90
63537;DHT22;49686;51.880;5.632;2022-07-23T01:10:58;12.40;99.90
63537;DHT22;49686;51.880;5.632;2022-07-23T01:13:25;12.40;99.90
63537;DHT22;49686;51.880;5.632;2022-07-23T01:15:52;12.30;99.90
63537;DHT22;49686;51.880;5.632;2022-07-23T01:18:19;12.30;99.90
63537;DHT22;49686;51.880;5.632;2022-07-23T01:20:47;12.20;99.90
63537;DHT22;49686;51.880;5.632;2022-07-23T01:23:16;12.20;99.90
63537;DHT22;49686;51.880;5.632;2022-07-23T01:25:48;12.20;99.90
63537;DHT22;49686;51.880;5.632;2022-07-23T01:28:15;12.10;99.90
63537;DHT22;49686;51.880;5.632;2022-07-23T01:30:42;12.10;99.90
63537;DHT22;49686;51.880;5.632;2022-07-23T01:33:09;12.10;99.90
63537;DHT22;49686;51.880;5.632;2022-07-23T01:35:36;12.00;99.90
63537;DHT22;49686;51.880;5.632;2022-07-23T01:38:03;12.00;99.90
63537;DHT22;49686;51.880;5.632;2022-07-23T01:40:31;11.90;99.90
63537;DHT22;49686;51.880;5.632;2022-07-23T01:42:59;11.90;99.90
63537;DHT22;49686;51.880;5.632;2022-07-23T01:45:26;11.90;99.90
63537;DHT22;49686;51.880;5.632;2022-07-23T01:47:53;11.80;99.90
63537;DHT22;49686;51.880;5.632;2022-07-23T01:50:21;11.80;99.90
63537;DHT22;49686;51.880;5.632;2022-07-23T01:52:47;11.80;99.90
63537;DHT22;49686;51.880;5.632;2022-07-23T01:55:14;11.80;99.90
63537;DHT22;49686;51.880;5.632;2022-07-23T01:57:47;11.80;99.90
63537;DHT22;49686;51.880;5.632;2022-07-23T02:00:14;11.70;99.90
63537;DHT22;49686;51.880;5.632;2022-07-23T02:02:41;11.70;99.90
63537;DHT22;49686;51.880;5.632;2022-07-23T02:05:09;11.70;99.90
63537;DHT22;49686;51.880;5.632;2022-07-23T02:07:36;11.70;99.90
63537;DHT22;49686;51.880;5.632;2022-07-23T02:10:03;11.60;99.90
63537;DHT22;49686;51.880;5.632;2022-07-23T02:12:30;11.60;99.90
63537;DHT22;49686;51.880;5.632;2022-07-23T02:14:58;11.60;99.90
63537;DHT22;49686;51.880;5.632;2022-07-23T02:17:25;11.60;99.90
63537;DHT22;49686;51.880;5.632;2022-07-23T02:19:53;11.60;99.90
63537;DHT22;49686;51.880;5.632;2022-07-23T02:22:19;11.50;99.90
63537;DHT22;49686;51.880;5.632;2022-07-23T02:24:46;11.50;99.90
63537;DHT22;49686;51.880;5.632;2022-07-23T02:27:14;11.50;99.90
63537;DHT22;49686;51.880;5.632;2022-07-23T02:29:40;11.50;99.90
63537;DHT22;49686;51.880;5.632;2022-07-23T02:32:09;11.50;99.90
63537;DHT22;49686;51.880;5.632;2022-07-23T02:34:36;11.50;99.90
63537;DHT22;49686;51.880;5.632;2022-07-23T02:37:03;11.50;99.90
63537;DHT22;49686;51.880;5.632;2022-07-23T02:39:30;11.50;99.90
63537;DHT22;49686;51.880;5.632;2022-07-23T02:41:57;11.50;99.90
63537;DHT22;49686;51.880;5.632;2022-07-23T02:44:24;11.40;99.90
63537;DHT22;49686;51.880;5.632;2022-07-23T02:46:51;11.40;99.90
63537;DHT22;49686;51.880;5.632;2022-07-23T02:49:20;11.30;99.90
63537;DHT22;49686;51.880;5.632;2022-07-23T02:51:47;11.30;99.90
63537;DHT22;49686;51.880;5.632;2022-07-23T02:54:14;11.20;99.90
63537;DHT22;49686;51.880;5.632;2022-07-23T02:56:41;11.20;99.90
63537;DHT22;49686;51.880;5.632;2022-07-23T02:59:08;11.20;99.90
63537;DHT22;49686;51.880;5.632;2022-07-23T03:01:35;11.20;99.90
63537;DHT22;49686;51.880;5.632;2022-07-23T03:04:03;11.10;99.90
63537;DHT22;49686;51.880;5.632;2022-07-23T03:06:31;11.10;99.90
63537;DHT22;49686;51.880;5.632;2022-07-23T03:08:57;11.00;99.90
63537;DHT22;49686;51.880;5.632;2022-07-23T03:11:25;11.00;99.90
63537;DHT22;49686;51.880;5.632;2022-07-23T03:13:52;10.90;99.90
63537;DHT22;49686;51.880;5.632;2022-07-23T03:16:19;10.90;99.90
63537;DHT22;49686;51.880;5.632;2022-07-23T03:18:46;10.90;99.90
63537;DHT22;49686;51.880;5.632;2022-07-23T03:21:14;10.90;99.90
63537;DHT22;49686;51.880;5.632;2022-07-23T03:23:42;10.90;99.90
63537;DHT22;49686;51.880;5.632;2022-07-23T03:26:09;10.90;99.90
63537;DHT22;49686;51.880;5.632;2022-07-23T03:28:36;10.80;99.90
63537;DHT22;49686;51.880;5.632;2022-07-23T03:31:03;10.80;99.90
63537;DHT22;49686;51.880;5.632;2022-07-23T03:33:31;10.80;99.90
63537;DHT22;49686;51.880;5.632;2022-07-23T03:35:58;10.70;99.90
63537;DHT22;49686;51.880;5.632;2022-07-23T03:38:26;10.70;99.90
63537;DHT22;49686;51.880;5.632;2022-07-23T03:40:54;10.70;99.90
63537;DHT22;49686;51.880;5.632;2022-07-23T03:43:21;10.60;99.90
63537;DHT22;49686;51.880;5.632;2022-07-23T03:45:48;10.60;99.90
63537;DHT22;49686;51.880;5.632;2022-07-23T03:48:15;10.60;99.90
63537;DHT22;49686;51.880;5.632;2022-07-23T03:50:42;10.60;99.90
63537;DHT22;49686;51.880;5.632;2022-07-23T03:53:09;10.70;99.90
63537;DHT22;49686;51.880;5.632;2022-07-23T03:55:36;10.70;99.90
63537;DHT22;49686;51.880;5.632;2022-07-23T03:58:04;10.80;99.90
63537;DHT22;49686;51.880;5.632;2022-07-23T04:00:31;10.80;99.90
63537;DHT22;49686;51.880;5.632;2022-07-23T04:02:58;10.70;99.90
63537;DHT22;49686;51.880;5.632;2022-07-23T04:05:25;10.70;99.90
63537;DHT22;49686;51.880;5.632;2022-07-23T04:07:52;10.70;99.90
63537;DHT22;49686;51.880;5.632;2022-07-23T04:10:20;10.80;99.90
63537;DHT22;49686;51.880;5.632;2022-07-23T04:12:46;10.80;99.90
63537;DHT22;49686;51.880;5.632;2022-07-23T04:15:15;10.80;99.90
63537;DHT22;49686;51.880;5.632;2022-07-23T04:17:42;10.90;99.90
63537;DHT22;49686;51.880;5.632;2022-07-23T04:20:10;10.90;99.90
63537;DHT22;49686;51.880;5.632;2022-07-23T04:22:37;11.00;99.90
63537;DHT22;49686;51.880;5.632;2022-07-23T04:25:05;11.00;99.90
63537;DHT22;49686;51.880;5.632;2022-07-23T04:27:32;11.10;99.90
63537;DHT22;49686;51.880;5.632;2022-07-23T04:29:59;11.10;99.90
63537;DHT22;49686;51.880;5.632;2022-07-23T04:32:27;11.20;99.90
63537;DHT22;49686;51.880;5.632;2022-07-23T04:34:55;11.20;99.90
63537;DHT22;49686;51.880;5.632;2022-07-23T04:37:21;11.30;99.90
63537;DHT22;49686;51.880;5.632;2022-07-23T04:39:48;11.40;99.90
63537;DHT22;49686;51.880;5.632;2022-07-23T04:42:16;11.60;99.90
63537;DHT22;49686;51.880;5.632;2022-07-23T04:44:42;12.10;99.90
63537;DHT22;49686;51.880;5.632;2022-07-23T04:47:09;12.90;99.90
63537;DHT22;49686;51.880;5.632;2022-07-23T04:49:40;13.60;99.90
63537;DHT22;49686;51.880;5.632;2022-07-23T04:52:07;14.30;99.90
63537;DHT22;49686;51.880;5.632;2022-07-23T04:54:34;15.00;99.90
63537;DHT22;49686;51.880;5.632;2022-07-23T04:57:01;15.60;99.90
63537;DHT22;49686;51.880;5.632;2022-07-23T04:59:30;16.20;99.90
63537;DHT22;49686;51.880;5.632;2022-07-23T05:01:57;16.80;99.90
63537;DHT22;49686;51.880;5.632;2022-07-23T05:04:24;17.30;99.90
63537;DHT22;49686;51.880;5.632;2022-07-23T05:06:52;17.60;99.90
63537;DHT22;49686;51.880;5.632;2022-07-23T05:09:19;17.90;99.90
63537;DHT22;49686;51.880;5.632;2022-07-23T05:11:46;18.20;99.90
63537;DHT22;49686;51.880;5.632;2022-07-23T05:14:13;18.60;99.90
63537;DHT22;49686;51.880;5.632;2022-07-23T05:16:40;18.90;99.90
63537;DHT22;49686;51.880;5.632;2022-07-23T05:19:08;19.20;99.90
63537;DHT22;49686;51.880;5.632;2022-07-23T05:21:34;19.30;99.90
63537;DHT22;49686;51.880;5.632;2022-07-23T05:24:03;19.30;99.90
63537;DHT22;49686;51.880;5.632;2022-07-23T05:26:30;19.30;99.90
63537;DHT22;49686;51.880;5.632;2022-07-23T05:28:57;19.30;99.90
63537;DHT22;49686;51.880;5.632;2022-07-23T05:31:24;19.40;99.90
63537;DHT22;49686;51.880;5.632;2022-07-23T05:33:52;19.40;99.90
63537;DHT22;49686;51.880;5.632;2022-07-23T05:36:18;19.50;99.90
63537;DHT22;49686;51.880;5.632;2022-07-23T05:38:45;19.70;99.90
63537;DHT22;49686;51.880;5.632;2022-07-23T05:41:14;19.90;99.90
63537;DHT22;49686;51.880;5.632;2022-07-23T05:43:41;20.30;99.90
63537;DHT22;49686;51.880;5.632;2022-07-23T05:46:08;20.70;99.90
63537;DHT22;49686;51.880;5.632;2022-07-23T05:48:35;20.90;99.90
63537;DHT22;49686;51.880;5.632;2022-07-23T05:51:02;21.00;99.90
63537;DHT22;49686;51.880;5.632;2022-07-23T05:53:29;21.20;99.90
63537;DHT22;49686;51.880;5.632;2022-07-23T05:55:56;21.20;99.90
63537;DHT22;49686;51.880;5.632;2022-07-23T05:58:25;21.60;99.90
63537;DHT22;49686;51.880;5.632;2022-07-23T06:00:51;22.10;99.90
63537;DHT22;49686;51.880;5.632;2022-07-23T06:03:19;22.50;99.10
63537;DHT22;49686;51.880;5.632;2022-07-23T06:05:46;22.80;98.50
63537;DHT22;49686;51.880;5.632;2022-07-23T06:08:12;22.80;98.60
63537;DHT22;49686;51.880;5.632;2022-07-23T06:10:40;22.80;98.30
63537;DHT22;49686;51.880;5.632;2022-07-23T06:13:07;23.10;97.30
63537;DHT22;49686;51.880;5.632;2022-07-23T06:15:35;23.40;97.20
63537;DHT22;49686;51.880;5.632;2022-07-23T06:18:03;23.80;96.60
63537;DHT22;49686;51.880;5.632;2022-07-23T06:20:30;24.20;93.90
63537;DHT22;49686;51.880;5.632;2022-07-23T06:22:56;23.70;93.10
63537;DHT22;49686;51.880;5.632;2022-07-23T06:25:24;23.90;94.30
63537;DHT22;49686;51.880;5.632;2022-07-23T06:27:51;23.50;94.70
63537;DHT22;49686;51.880;5.632;2022-07-23T06:30:18;24.20;93.20
63537;DHT22;49686;51.880;5.632;2022-07-23T06:32:48;24.50;92.30
63537;DHT22;49686;51.880;5.632;2022-07-23T06:35:15;24.60;92.10
63537;DHT22;49686;51.880;5.632;2022-07-23T06:37:44;24.90;91.30
63537;DHT22;49686;51.880;5.632;2022-07-23T06:40:14;25.40;89.80
63537;DHT22;49686;51.880;5.632;2022-07-23T06:42:41;26.10;86.80
63537;DHT22;49686;51.880;5.632;2022-07-23T06:45:09;26.30;83.50
63537;DHT22;49686;51.880;5.632;2022-07-23T06:47:36;26.40;78.10
63537;DHT22;49686;51.880;5.632;2022-07-23T06:50:05;26.50;80.80
63537;DHT22;49686;51.880;5.632;2022-07-23T06:52:32;26.20;79.40
63537;DHT22;49686;51.880;5.632;2022-07-23T06:55:03;26.00;78.00
63537;DHT22;49686;51.880;5.632;2022-07-23T06:57:30;25.80;78.20
63537;DHT22;49686;51.880;5.632;2022-07-23T07:00:00;25.70;76.80
63537;DHT22;49686;51.880;5.632;2022-07-23T07:02:28;25.80;76.00
63537;DHT22;49686;51.880;5.632;2022-07-23T07:04:55;25.30;77.30
63537;DHT22;49686;51.880;5.632;2022-07-23T07:07:26;25.20;76.30
63537;DHT22;49686;51.880;5.632;2022-07-23T07:09:53;24.20;78.70
63537;DHT22;49686;51.880;5.632;2022-07-23T07:12:20;24.80;77.20
63537;DHT22;49686;51.880;5.632;2022-07-23T07:14:47;24.80;76.40
63537;DHT22;49686;51.880;5.632;2022-07-23T07:17:14;24.30;78.80
63537;DHT22;49686;51.880;5.632;2022-07-23T07:19:41;24.60;78.80
63537;DHT22;49686;51.880;5.632;2022-07-23T07:22:08;25.10;75.30
63537;DHT22;49686;51.880;5.632;2022-07-23T07:24:37;25.10;74.70
63537;DHT22;49686;51.880;5.632;2022-07-23T07:27:04;24.80;75.10
63537;DHT22;49686;51.880;5.632;2022-07-23T07:29:31;24.60;76.80
63537;DHT22;49686;51.880;5.632;2022-07-23T07:31:58;24.90;76.60
63537;DHT22;49686;51.880;5.632;2022-07-23T07:34:25;24.90;75.00
63537;DHT22;49686;51.880;5.632;2022-07-23T07:36:52;25.00;75.80
63537;DHT22;49686;51.880;5.632;2022-07-23T07:39:20;25.00;75.10
63537;DHT22;49686;51.880;5.632;2022-07-23T07:41:48;24.50;75.50
63537;DHT22;49686;51.880;5.632;2022-07-23T07:44:14;24.70;76.90
63537;DHT22;49686;51.880;5.632;2022-07-23T07:46:42;25.40;74.00
63537;DHT22;49686;51.880;5.632;2022-07-23T07:49:09;25.70;73.00
63537;DHT22;49686;51.880;5.632;2022-07-23T07:51:42;25.50;72.60
63537;DHT22;49686;51.880;5.632;2022-07-23T07:54:11;25.30;71.80
63537;DHT22;49686;51.880;5.632;2022-07-23T07:56:38;25.10;71.90
63537;DHT22;49686;51.880;5.632;2022-07-23T07:59:08;24.60;75.50
63537;DHT22;49686;51.880;5.632;2022-07-23T08:01:36;24.20;74.90
63537;DHT22;49686;51.880;5.632;2022-07-23T08:04:03;23.50;76.90
63537;DHT22;49686;51.880;5.632;2022-07-23T08:06:32;23.50;77.60
63537;DHT22;49686;51.880;5.632;2022-07-23T08:08:58;23.40;77.30
63537;DHT22;49686;51.880;5.632;2022-07-23T08:11:25;23.10;78.00
63537;DHT22;49686;51.880;5.632;2022-07-23T08:13:53;22.40;79.90
63537;DHT22;49686;51.880;5.632;2022-07-23T08:16:21;22.30;81.20
63537;DHT22;49686;51.880;5.632;2022-07-23T08:18:48;22.40;82.00
63537;DHT22;49686;51.880;5.632;2022-07-23T08:21:15;21.80;83.70
63537;DHT22;49686;51.880;5.632;2022-07-23T08:23:42;21.50;84.60
63537;DHT22;49686;51.880;5.632;2022-07-23T08:26:09;21.50;84.60
63537;DHT22;49686;51.880;5.632;2022-07-23T08:28:36;21.70;85.30
63537;DHT22;49686;51.880;5.632;2022-07-23T08:31:03;22.50;83.50
63537;DHT22;49686;51.880;5.632;2022-07-23T08:33:31;23.50;80.70
63537;DHT22;49686;51.880;5.632;2022-07-23T08:36:02;23.90;79.70
63537;DHT22;49686;51.880;5.632;2022-07-23T08:38:30;24.50;78.50
63537;DHT22;49686;51.880;5.632;2022-07-23T08:40:57;25.10;76.20
63537;DHT22;49686;51.880;5.632;2022-07-23T08:43:26;25.40;74.10
63537;DHT22;49686;51.880;5.632;2022-07-23T08:45:55;25.30;73.40
63537;DHT22;49686;51.880;5.632;2022-07-23T08:48:23;24.40;74.70
63537;DHT22;49686;51.880;5.632;2022-07-23T08:50:53;23.90;76.00
63537;DHT22;49686;51.880;5.632;2022-07-23T08:53:25;23.20;78.80
63537;DHT22;49686;51.880;5.632;2022-07-23T08:55:54;22.70;80.70
63537;DHT22;49686;51.880;5.632;2022-07-23T08:58:22;22.30;81.50
63537;DHT22;49686;51.880;5.632;2022-07-23T09:00:55;22.50;81.60
63537;DHT22;49686;51.880;5.632;2022-07-23T09:03:25;22.70;81.10
63537;DHT22;49686;51.880;5.632;2022-07-23T09:05:55;22.70;81.50
63537;DHT22;49686;51.880;5.632;2022-07-23T09:08:24;23.00;79.80
63537;DHT22;49686;51.880;5.632;2022-07-23T09:10:53;23.10;80.50
63537;DHT22;49686;51.880;5.632;2022-07-23T09:13:32;23.10;79.80
63537;DHT22;49686;51.880;5.632;2022-07-23T09:16:04;22.60;81.10
63537;DHT22;49686;51.880;5.632;2022-07-23T09:18:38;22.30;82.50
63537;DHT22;49686;51.880;5.632;2022-07-23T09:21:09;22.40;81.10
63537;DHT22;49686;51.880;5.632;2022-07-23T09:23:37;22.10;83.90
63537;DHT22;49686;51.880;5.632;2022-07-23T09:26:17;21.90;83.30
63537;DHT22;49686;51.880;5.632;2022-07-23T09:28:59;21.90;83.30
63537;DHT22;49686;51.880;5.632;2022-07-23T09:31:31;22.20;83.50
63537;DHT22;49686;51.880;5.632;2022-07-23T09:34:08;22.10;83.80
63537;DHT22;49686;51.880;5.632;2022-07-23T09:36:37;22.50;83.40
63537;DHT22;49686;51.880;5.632;2022-07-23T09:39:04;22.90;81.30
63537;DHT22;49686;51.880;5.632;2022-07-23T09:41:36;22.80;82.60
63537;DHT22;49686;51.880;5.632;2022-07-23T09:44:12;23.10;81.00
63537;DHT22;49686;51.880;5.632;2022-07-23T09:46:40;22.90;79.50
63537;DHT22;49686;51.880;5.632;2022-07-23T09:49:13;22.90;80.40
63537;DHT22;49686;51.880;5.632;2022-07-23T09:51:46;22.60;81.30
63537;DHT22;49686;51.880;5.632;2022-07-23T09:54:22;22.30;81.70
63537;DHT22;49686;51.880;5.632;2022-07-23T09:56:51;22.50;81.60
63537;DHT22;49686;51.880;5.632;2022-07-23T09:59:23;22.70;81.10
63537;DHT22;49686;51.880;5.632;2022-07-23T10:01:51;22.70;80.00
63537;DHT22;49686;51.880;5.632;2022-07-23T10:04:18;23.00;81.20
63537;DHT22;49686;51.880;5.632;2022-07-23T10:06:51;22.70;81.10
63537;DHT22;49686;51.880;5.632;2022-07-23T10:09:23;22.90;81.70
63537;DHT22;49686;51.880;5.632;2022-07-23T10:11:52;23.30;80.50
63537;DHT22;49686;51.880;5.632;2022-07-23T10:14:20;23.00;79.80
63537;DHT22;49686;51.880;5.632;2022-07-23T10:16:48;22.80;81.00
63537;DHT22;49686;51.880;5.632;2022-07-23T10:19:15;22.90;80.40
63537;DHT22;49686;51.880;5.632;2022-07-23T10:21:48;23.10;80.70
63537;DHT22;49686;51.880;5.632;2022-07-23T10:24:21;23.30;79.10
63537;DHT22;49686;51.880;5.632;2022-07-23T10:26:57;23.80;79.10
63537;DHT22;49686;51.880;5.632;2022-07-23T10:29:38;23.90;79.10
63537;DHT22;49686;51.880;5.632;2022-07-23T10:32:19;24.00;77.90
63537;DHT22;49686;51.880;5.632;2022-07-23T10:34:55;23.70;78.30
63537;DHT22;49686;51.880;5.632;2022-07-23T10:37:31;23.70;78.90
63537;DHT22;49686;51.880;5.632;2022-07-23T10:40:09;23.50;78.20
63537;DHT22;49686;51.880;5.632;2022-07-23T10:42:37;23.20;80.60
63537;DHT22;49686;51.880;5.632;2022-07-23T10:45:22;23.40;80.60
63537;DHT22;49686;51.880;5.632;2022-07-23T10:47:50;23.80;79.80
63537;DHT22;49686;51.880;5.632;2022-07-23T10:50:18;24.10;77.30
63537;DHT22;49686;51.880;5.632;2022-07-23T10:55:51;22.90;80.10
63537;DHT22;49686;51.880;5.632;2022-07-23T10:58:21;23.00;79.90
63537;DHT22;49686;51.880;5.632;2022-07-23T11:00:49;23.30;80.00
63537;DHT22;49686;51.880;5.632;2022-07-23T11:03:30;23.30;79.40
63537;DHT22;49686;51.880;5.632;2022-07-23T11:05:57;23.10;79.80
63537;DHT22;49686;51.880;5.632;2022-07-23T11:08:24;23.00;79.50
63537;DHT22;49686;51.880;5.632;2022-07-23T11:10:55;23.10;78.00
63537;DHT22;49686;51.880;5.632;2022-07-23T11:13:40;23.30;78.10
63537;DHT22;49686;51.880;5.632;2022-07-23T11:16:12;23.80;78.30
63537;DHT22;49686;51.880;5.632;2022-07-23T11:19:07;24.30;75.60
63537;DHT22;49686;51.880;5.632;2022-07-23T11:21:48;24.80;72.50
63537;DHT22;49686;51.880;5.632;2022-07-23T11:24:20;25.00;71.40
63537;DHT22;49686;51.880;5.632;2022-07-23T11:26:54;25.20;72.90
63537;DHT22;49686;51.880;5.632;2022-07-23T11:29:40;25.90;69.90
63537;DHT22;49686;51.880;5.632;2022-07-23T11:32:24;25.40;70.70
63537;DHT22;49686;51.880;5.632;2022-07-23T11:34:54;25.70;71.40
63537;DHT22;49686;51.880;5.632;2022-07-23T11:37:36;25.40;70.80
63537;DHT22;49686;51.880;5.632;2022-07-23T11:40:07;25.30;68.80
63537;DHT22;49686;51.880;5.632;2022-07-23T11:42:37;25.40;68.90
63537;DHT22;49686;51.880;5.632;2022-07-23T11:45:07;25.80;68.30
63537;DHT22;49686;51.880;5.632;2022-07-23T11:47:35;26.10;66.70
63537;DHT22;49686;51.880;5.632;2022-07-23T11:50:05;26.20;66.20
63537;DHT22;49686;51.880;5.632;2022-07-23T11:52:32;25.20;68.60
63537;DHT22;49686;51.880;5.632;2022-07-23T11:55:02;25.20;69.50
63537;DHT22;49686;51.880;5.632;2022-07-23T11:57:30;25.60;68.80
63537;DHT22;49686;51.880;5.632;2022-07-23T12:00:03;25.70;68.20
63537;DHT22;49686;51.880;5.632;2022-07-23T12:02:32;25.50;68.40
63537;DHT22;49686;51.880;5.632;2022-07-23T12:04:59;25.70;68.70
63537;DHT22;49686;51.880;5.632;2022-07-23T12:07:29;25.30;69.70
63537;DHT22;49686;51.880;5.632;2022-07-23T12:09:57;25.10;69.20
63537;DHT22;49686;51.880;5.632;2022-07-23T12:12:26;25.30;69.90
63537;DHT22;49686;51.880;5.632;2022-07-23T12:14:54;25.50;68.90
63537;DHT22;49686;51.880;5.632;2022-07-23T12:17:31;25.30;69.60
63537;DHT22;49686;51.880;5.632;2022-07-23T12:19:59;24.80;72.40
63537;DHT22;49686;51.880;5.632;2022-07-23T12:22:34;24.60;71.90
63537;DHT22;49686;51.880;5.632;2022-07-23T12:25:03;24.50;71.40
63537;DHT22;49686;51.880;5.632;2022-07-23T12:27:31;24.60;70.70
63537;DHT22;49686;51.880;5.632;2022-07-23T12:29:58;24.50;71.70
63537;DHT22;49686;51.880;5.632;2022-07-23T12:32:28;24.60;70.80
63537;DHT22;49686;51.880;5.632;2022-07-23T12:35:06;24.70;71.60
63537;DHT22;49686;51.880;5.632;2022-07-23T12:37:36;24.00;70.40
63537;DHT22;49686;51.880;5.632;2022-07-23T12:40:20;24.20;72.40
63537;DHT22;49686;51.880;5.632;2022-07-23T12:42:50;24.80;70.00
63537;DHT22;49686;51.880;5.632;2022-07-23T12:45:18;25.10;70.60
63537;DHT22;49686;51.880;5.632;2022-07-23T12:48:00;25.30;70.60
63537;DHT22;49686;51.880;5.632;2022-07-23T12:53:15;25.80;67.50
63537;DHT22;49686;51.880;5.632;2022-07-23T12:55:56;26.30;66.90
63537;DHT22;49686;51.880;5.632;2022-07-23T12:58:45;26.60;67.30
63537;DHT22;49686;51.880;5.632;2022-07-23T13:01:27;26.90;66.20
63537;DHT22;49686;51.880;5.632;2022-07-23T13:03:58;26.70;64.10
63537;DHT22;49686;51.880;5.632;2022-07-23T13:06:27;26.40;65.30
63537;DHT22;49686;51.880;5.632;2022-07-23T13:08:55;26.80;63.70
63537;DHT22;49686;51.880;5.632;2022-07-23T13:11:22;27.00;60.70
63537;DHT22;49686;51.880;5.632;2022-07-23T13:13:50;27.20;61.20
63537;DHT22;49686;51.880;5.632;2022-07-23T13:16:18;27.10;59.10
63537;DHT22;49686;51.880;5.632;2022-07-23T13:18:47;27.30;60.80
63537;DHT22;49686;51.880;5.632;2022-07-23T13:21:16;27.20;60.30
63537;DHT22;49686;51.880;5.632;2022-07-23T13:23:44;27.40;60.00
63537;DHT22;49686;51.880;5.632;2022-07-23T13:26:11;27.00;60.00
63537;DHT22;49686;51.880;5.632;2022-07-23T13:28:39;25.80;61.50
63537;DHT22;49686;51.880;5.632;2022-07-23T13:31:06;24.90;63.60
63537;DHT22;49686;51.880;5.632;2022-07-23T13:33:34;24.90;64.30
63537;DHT22;49686;51.880;5.632;2022-07-23T13:36:04;25.50;63.90
63537;DHT22;49686;51.880;5.632;2022-07-23T13:38:33;25.60;63.40
63537;DHT22;49686;51.880;5.632;2022-07-23T13:41:00;25.90;63.00
63537;DHT22;49686;51.880;5.632;2022-07-23T13:43:28;26.40;61.60
63537;DHT22;49686;51.880;5.632;2022-07-23T13:46:02;26.80;60.70
63537;DHT22;49686;51.880;5.632;2022-07-23T13:48:29;27.00;60.70
63537;DHT22;49686;51.880;5.632;2022-07-23T13:50:56;27.00;59.90
63537;DHT22;49686;51.880;5.632;2022-07-23T13:53:24;26.40;60.20
63537;DHT22;49686;51.880;5.632;2022-07-23T13:55:54;26.00;61.70
63537;DHT22;49686;51.880;5.632;2022-07-23T13:58:22;26.10;61.50
63537;DHT22;49686;51.880;5.632;2022-07-23T14:00:51;26.70;61.30
63537;DHT22;49686;51.880;5.632;2022-07-23T14:03:21;26.30;61.20
63537;DHT22;49686;51.880;5.632;2022-07-23T14:05:48;25.80;62.10
63537;DHT22;49686;51.880;5.632;2022-07-23T14:08:15;25.60;62.30
63537;DHT22;49686;51.880;5.632;2022-07-23T14:10:42;24.90;63.70
63537;DHT22;49686;51.880;5.632;2022-07-23T14:13:11;24.90;64.30
63537;DHT22;49686;51.880;5.632;2022-07-23T14:15:38;25.40;63.80
63537;DHT22;49686;51.880;5.632;2022-07-23T14:18:06;25.70;62.60
63537;DHT22;49686;51.880;5.632;2022-07-23T14:20:33;25.90;63.20
63537;DHT22;49686;51.880;5.632;2022-07-23T14:23:00;26.00;63.20
63537;DHT22;49686;51.880;5.632;2022-07-23T14:25:32;26.20;62.10
63537;DHT22;49686;51.880;5.632;2022-07-23T14:27:59;25.90;62.50
63537;DHT22;49686;51.880;5.632;2022-07-23T14:30:27;26.30;62.40
63537;DHT22;49686;51.880;5.632;2022-07-23T14:33:01;26.50;61.20
63537;DHT22;49686;51.880;5.632;2022-07-23T14:35:28;26.20;61.60
63537;DHT22;49686;51.880;5.632;2022-07-23T14:37:55;26.40;61.30
63537;DHT22;49686;51.880;5.632;2022-07-23T14:40:22;26.50;62.10
63537;DHT22;49686;51.880;5.632;2022-07-23T14:42:50;27.00;60.70
63537;DHT22;49686;51.880;5.632;2022-07-23T14:45:16;27.40;60.00
63537;DHT22;49686;51.880;5.632;2022-07-23T14:47:47;27.60;60.30
63537;DHT22;49686;51.880;5.632;2022-07-23T14:50:14;27.70;59.60
63537;DHT22;49686;51.880;5.632;2022-07-23T14:52:41;27.60;59.60
63537;DHT22;49686;51.880;5.632;2022-07-23T14:55:09;27.60;58.20
63537;DHT22;49686;51.880;5.632;2022-07-23T14:57:36;27.20;59.40
63537;DHT22;49686;51.880;5.632;2022-07-23T15:00:03;26.90;60.60
63537;DHT22;49686;51.880;5.632;2022-07-23T15:02:31;26.90;60.20
63537;DHT22;49686;51.880;5.632;2022-07-23T15:05:00;27.00;60.90
63537;DHT22;49686;51.880;5.632;2022-07-23T15:07:26;27.10;60.30
63537;DHT22;49686;51.880;5.632;2022-07-23T15:09:55;26.90;59.50
63537;DHT22;49686;51.880;5.632;2022-07-23T15:12:22;27.00;59.50
63537;DHT22;49686;51.880;5.632;2022-07-23T15:14:48;27.20;59.00
63537;DHT22;49686;51.880;5.632;2022-07-23T15:17:16;27.40;58.80
63537;DHT22;49686;51.880;5.632;2022-07-23T15:19:43;27.20;59.40
63537;DHT22;49686;51.880;5.632;2022-07-23T15:22:11;27.10;59.70
63537;DHT22;49686;51.880;5.632;2022-07-23T15:24:38;26.80;59.90
63537;DHT22;49686;51.880;5.632;2022-07-23T15:27:05;26.90;59.90
63537;DHT22;49686;51.880;5.632;2022-07-23T15:29:33;27.00;60.00
63537;DHT22;49686;51.880;5.632;2022-07-23T15:32:01;26.90;60.20
63537;DHT22;49686;51.880;5.632;2022-07-23T15:34:28;26.90;59.70
63537;DHT22;49686;51.880;5.632;2022-07-23T15:36:55;26.40;60.80
63537;DHT22;49686;51.880;5.632;2022-07-23T15:39:25;26.10;61.70
63537;DHT22;49686;51.880;5.632;2022-07-23T15:41:54;25.80;61.50
63537;DHT22;49686;51.880;5.632;2022-07-23T15:44:20;25.50;63.20
63537;DHT22;49686;51.880;5.632;2022-07-23T15:46:56;25.40;62.60